KSGH/SGH METAR and TAF weather

Enter ICAO airport designator
Station Type Date Time Source
KSGH METAR 2019/12/06 13:56 UTC NOAA

KSGH 061356Z AUTO 22008KT 10SM BKN090 07/01 A3003 RMK AO2 SLP178 T00670011


Station Type Date Time Source
KSGH Decoded METAR 2019/12/06 13:56 UTC NOAA

Springfield, Springfield-Beckley Municipal Airport, OH, United States (KSGH) 39-50-25N 083-50-24W
Dec 06, 2019 - 08:56 AM EST / 2019.12.06 1356 UTC
Wind: from the SW (220 degrees) at 9 MPH (8 KT):0
Visibility: 10 mile(s):0
Sky conditions: mostly cloudy
Temperature: 44.1 F (6.7 C)
Dew Point: 34.0 F (1.1 C)
Relative Humidity: 67%
Pressure (altimeter): 30.03 in. Hg (1016 hPa)
ob: KSGH 061356Z AUTO 22008KT 10SM BKN090 07/01 A3003 RMK AO2 SLP178 T00670011
cycle: 14

Station Type Date Time Source
KSGH TAF UTC NOAA

Error!

Example: see airport list